sensor_id;sensor_type;location;lat;lon;timestamp;pressure;altitude;pressure_sealevel;temperature;humidity
60845;BME280;47984;51.250;6.712;2022-08-21T00:00:34;101472.44;;;15.24;50.11
60845;BME280;47984;51.250;6.712;2022-08-21T00:03:11;101486.13;;;15.32;50.40
60845;BME280;47984;51.250;6.712;2022-08-21T00:06:05;101479.19;;;15.31;49.85
60845;BME280;47984;51.250;6.712;2022-08-21T00:08:41;101479.19;;;15.31;50.53
60845;BME280;47984;51.250;6.712;2022-08-21T00:11:13;101473.09;;;15.31;49.72
60845;BME280;47984;51.250;6.712;2022-08-21T00:13:44;101468.72;;;15.31;50.11
60845;BME280;47984;51.250;6.712;2022-08-21T00:16:14;101464.59;;;15.24;50.11
60845;BME280;47984;51.250;6.712;2022-08-21T00:18:41;101473.94;;;15.31;50.21
60845;BME280;47984;51.250;6.712;2022-08-21T00:21:12;101468.75;;;15.30;50.02
60845;BME280;47984;51.250;6.712;2022-08-21T00:23:52;101462.75;;;15.28;50.47
60845;BME280;47984;51.250;6.712;2022-08-21T00:26:21;101460.03;;;15.29;50.42
60845;BME280;47984;51.250;6.712;2022-08-21T00:28:49;101461.84;;;15.27;50.34
60845;BME280;47984;51.250;6.712;2022-08-21T00:31:21;101454.06;;;15.26;50.03
60845;BME280;47984;51.250;6.712;2022-08-21T00:33:50;101441.13;;;15.21;50.10
60845;BME280;47984;51.250;6.712;2022-08-21T00:36:17;101456.69;;;15.26;49.98
60845;BME280;47984;51.250;6.712;2022-08-21T00:38:46;101462.78;;;15.26;49.59
60845;BME280;47984;51.250;6.712;2022-08-21T00:41:15;101453.34;;;15.22;50.14
60845;BME280;47984;51.250;6.712;2022-08-21T00:44:13;101456.81;;;15.23;50.32
60845;BME280;47984;51.250;6.712;2022-08-21T00:46:47;101451.50;;;15.24;50.00
60845;BME280;47984;51.250;6.712;2022-08-21T00:49:19;101449.91;;;15.20;50.11
60845;BME280;47984;51.250;6.712;2022-08-21T00:51:54;101452.53;;;15.20;50.40
60845;BME280;47984;51.250;6.712;2022-08-21T00:54:37;101445.75;;;15.14;50.17
60845;BME280;47984;51.250;6.712;2022-08-21T00:57:20;101438.00;;;15.11;50.44
60845;BME280;47984;51.250;6.712;2022-08-21T00:59:54;101441.38;;;15.15;50.60
60845;BME280;47984;51.250;6.712;2022-08-21T01:02:30;101447.59;;;15.12;50.33
60845;BME280;47984;51.250;6.712;2022-08-21T01:04:57;101441.59;;;15.09;50.40
60845;BME280;47984;51.250;6.712;2022-08-21T01:07:36;101444.28;;;15.07;50.63
60845;BME280;47984;51.250;6.712;2022-08-21T01:10:07;101440.94;;;15.04;50.79
60845;BME280;47984;51.250;6.712;2022-08-21T01:12:57;101441.19;;;14.96;50.31
60845;BME280;47984;51.250;6.712;2022-08-21T01:15:33;101449.97;;;14.95;50.80
60845;BME280;47984;51.250;6.712;2022-08-21T01:18:06;101449.16;;;14.93;50.90
60845;BME280;47984;51.250;6.712;2022-08-21T01:20:36;101451.84;;;14.91;50.89
60845;BME280;47984;51.250;6.712;2022-08-21T01:23:10;101447.53;;;14.90;50.53
60845;BME280;47984;51.250;6.712;2022-08-21T01:25:40;101444.34;;;14.82;50.79
60845;BME280;47984;51.250;6.712;2022-08-21T01:28:13;101460.78;;;14.86;50.54
60845;BME280;47984;51.250;6.712;2022-08-21T01:30:43;101458.28;;;14.83;50.60
60845;BME280;47984;51.250;6.712;2022-08-21T01:33:16;101453.22;;;14.78;50.61
60845;BME280;47984;51.250;6.712;2022-08-21T01:35:49;101457.66;;;14.76;50.57
60845;BME280;47984;51.250;6.712;2022-08-21T01:38:17;101461.22;;;14.73;50.89
60845;BME280;47984;51.250;6.712;2022-08-21T01:40:47;101459.53;;;14.72;50.66
60845;BME280;47984;51.250;6.712;2022-08-21T01:43:17;101457.91;;;14.68;50.66
60845;BME280;47984;51.250;6.712;2022-08-21T01:45:56;101457.06;;;14.68;50.63
60845;BME280;47984;51.250;6.712;2022-08-21T01:48:26;101458.88;;;14.66;50.94
60845;BME280;47984;51.250;6.712;2022-08-21T01:50:57;101453.88;;;14.60;50.55
60845;BME280;47984;51.250;6.712;2022-08-21T01:53:30;101456.53;;;14.58;50.99
60845;BME280;47984;51.250;6.712;2022-08-21T01:56:12;101453.16;;;14.55;50.90
60845;BME280;47984;51.250;6.712;2022-08-21T01:58:48;101454.09;;;14.54;50.56
60845;BME280;47984;51.250;6.712;2022-08-21T02:01:19;101446.31;;;14.50;50.62
60845;BME280;47984;51.250;6.712;2022-08-21T02:03:49;101450.72;;;14.48;50.79
60845;BME280;47984;51.250;6.712;2022-08-21T02:06:16;101463.91;;;14.45;50.63
60845;BME280;47984;51.250;6.712;2022-08-21T02:08:54;101464.03;;;14.42;50.77
60845;BME280;47984;51.250;6.712;2022-08-21T02:11:30;101458.84;;;14.41;50.63
60845;BME280;47984;51.250;6.712;2022-08-21T02:14:01;101451.16;;;14.36;50.80
60845;BME280;47984;51.250;6.712;2022-08-21T02:16:28;101455.56;;;14.34;50.74
60845;BME280;47984;51.250;6.712;2022-08-21T02:18:59;101460.88;;;14.33;51.20
60845;BME280;47984;51.250;6.712;2022-08-21T02:21:29;101439.44;;;14.21;51.02
60845;BME280;47984;51.250;6.712;2022-08-21T02:23:57;101448.91;;;14.25;50.75
60845;BME280;47984;51.250;6.712;2022-08-21T02:26:32;101463.72;;;14.25;51.25
60845;BME280;47984;51.250;6.712;2022-08-21T02:29:08;101457.66;;;14.24;51.16
60845;BME280;47984;51.250;6.712;2022-08-21T02:31:36;101450.72;;;14.23;51.02
60845;BME280;47984;51.250;6.712;2022-08-21T02:34:05;101449.78;;;14.24;50.86
60845;BME280;47984;51.250;6.712;2022-08-21T02:36:34;101451.56;;;14.24;50.87
60845;BME280;47984;51.250;6.712;2022-08-21T02:39:05;101436.78;;;14.23;50.82
60845;BME280;47984;51.250;6.712;2022-08-21T02:41:32;101445.47;;;14.23;51.11
60845;BME280;47984;51.250;6.712;2022-08-21T02:44:00;101450.72;;;14.23;50.99
60845;BME280;47984;51.250;6.712;2022-08-21T02:46:37;101445.59;;;14.20;50.88
60845;BME280;47984;51.250;6.712;2022-08-21T02:49:05;101450.81;;;14.20;51.15
60845;BME280;47984;51.250;6.712;2022-08-21T02:51:37;101445.63;;;14.19;50.66
60845;BME280;47984;51.250;6.712;2022-08-21T02:54:08;101443.94;;;14.18;50.91
60845;BME280;47984;51.250;6.712;2022-08-21T02:56:40;101444.88;;;14.15;51.08
60845;BME280;47984;51.250;6.712;2022-08-21T02:59:11;101444.09;;;14.13;50.82
60845;BME280;47984;51.250;6.712;2022-08-21T03:01:40;101438.16;;;14.08;51.09
60845;BME280;47984;51.250;6.712;2022-08-21T03:04:10;101441.72;;;14.06;51.29
60845;BME280;47984;51.250;6.712;2022-08-21T03:06:43;101440.00;;;14.04;51.26
60845;BME280;47984;51.250;6.712;2022-08-21T03:09:18;101449.63;;;14.04;50.95
60845;BME280;47984;51.250;6.712;2022-08-21T03:11:45;101436.59;;;14.02;51.18
60845;BME280;47984;51.250;6.712;2022-08-21T03:14:20;101439.31;;;13.99;51.11
60845;BME280;47984;51.250;6.712;2022-08-21T03:16:51;101434.16;;;13.96;50.89
60845;BME280;47984;51.250;6.712;2022-08-21T03:19:18;101432.56;;;13.92;51.13
60845;BME280;47984;51.250;6.712;2022-08-21T03:21:48;101430.84;;;13.91;51.04
60845;BME280;47984;51.250;6.712;2022-08-21T03:24:17;101429.31;;;13.86;50.90
60845;BME280;47984;51.250;6.712;2022-08-21T03:26:57;101431.06;;;13.85;51.35
60845;BME280;47984;51.250;6.712;2022-08-21T03:29:44;101431.94;;;13.84;51.10
60845;BME280;47984;51.250;6.712;2022-08-21T03:32:11;101439.97;;;13.79;51.16
60845;BME280;47984;51.250;6.712;2022-08-21T03:34:52;101440.06;;;13.76;51.24
60845;BME280;47984;51.250;6.712;2022-08-21T03:37:30;101434.88;;;13.75;51.11
60845;BME280;47984;51.250;6.712;2022-08-21T03:40:06;101439.31;;;13.73;51.38
60845;BME280;47984;51.250;6.712;2022-08-21T03:42:37;101423.88;;;13.64;51.17
60845;BME280;47984;51.250;6.712;2022-08-21T03:45:14;101438.59;;;13.68;51.17
60845;BME280;47984;51.250;6.712;2022-08-21T03:48:02;101443.91;;;13.65;51.19
60845;BME280;47984;51.250;6.712;2022-08-21T03:50:54;101442.19;;;13.62;51.20
60845;BME280;47984;51.250;6.712;2022-08-21T03:53:25;101443.16;;;13.59;51.28
60845;BME280;47984;51.250;6.712;2022-08-21T03:56:00;101447.59;;;13.57;51.29
60845;BME280;47984;51.250;6.712;2022-08-21T03:58:28;101456.31;;;13.56;51.27
60845;BME280;47984;51.250;6.712;2022-08-21T04:01:02;101457.22;;;13.55;51.28
60845;BME280;47984;51.250;6.712;2022-08-21T04:03:49;101451.09;;;13.56;51.03
60845;BME280;47984;51.250;6.712;2022-08-21T04:06:25;101457.22;;;13.55;51.40
60845;BME280;47984;51.250;6.712;2022-08-21T04:09:05;101457.25;;;13.54;51.48
60845;BME280;47984;51.250;6.712;2022-08-21T04:11:35;101467.75;;;13.52;51.70
60845;BME280;47984;51.250;6.712;2022-08-21T04:14:04;101469.56;;;13.50;51.46
60845;BME280;47984;51.250;6.712;2022-08-21T04:16:35;101465.34;;;13.46;51.41
60845;BME280;47984;51.250;6.712;2022-08-21T04:19:06;101466.25;;;13.45;51.28
60845;BME280;47984;51.250;6.712;2022-08-21T04:21:36;101457.69;;;13.40;51.38
60845;BME280;47984;51.250;6.712;2022-08-21T04:24:09;101457.59;;;13.43;51.22
60845;BME280;47984;51.250;6.712;2022-08-21T04:26:46;101461.13;;;13.42;51.57
60845;BME280;47984;51.250;6.712;2022-08-21T04:29:18;101462.06;;;13.40;51.21
60845;BME280;47984;51.250;6.712;2022-08-21T04:31:48;101459.47;;;13.38;51.32
60845;BME280;47984;51.250;6.712;2022-08-21T04:34:15;101469.91;;;13.38;51.73
60845;BME280;47984;51.250;6.712;2022-08-21T04:36:42;101456.94;;;13.35;51.67
60845;BME280;47984;51.250;6.712;2022-08-21T04:39:09;101463.09;;;13.34;51.64
60845;BME280;47984;51.250;6.712;2022-08-21T04:41:36;101460.53;;;13.32;51.64
60845;BME280;47984;51.250;6.712;2022-08-21T04:44:03;101460.63;;;13.29;51.63
60845;BME280;47984;51.250;6.712;2022-08-21T04:46:30;101464.97;;;13.29;51.66
60845;BME280;47984;51.250;6.712;2022-08-21T04:48:57;101461.59;;;13.25;51.55
60845;BME280;47984;51.250;6.712;2022-08-21T04:51:30;101469.44;;;13.25;51.34
60845;BME280;47984;51.250;6.712;2022-08-21T04:54:11;101465.06;;;13.26;51.54
60845;BME280;47984;51.250;6.712;2022-08-21T04:56:46;101465.06;;;13.26;51.69
60845;BME280;47984;51.250;6.712;2022-08-21T04:59:19;101463.34;;;13.25;51.38
60845;BME280;47984;51.250;6.712;2022-08-21T05:01:48;101469.53;;;13.22;51.33
60845;BME280;47984;51.250;6.712;2022-08-21T05:04:18;101468.63;;;13.23;51.40
60845;BME280;47984;51.250;6.712;2022-08-21T05:06:48;101466.03;;;13.23;51.39
60845;BME280;47984;51.250;6.712;2022-08-21T05:09:17;101468.63;;;13.23;51.65
60845;BME280;47984;51.250;6.712;2022-08-21T05:11:45;101468.66;;;13.22;51.53
60845;BME280;47984;51.250;6.712;2022-08-21T05:14:12;101472.09;;;13.24;51.19
60845;BME280;47984;51.250;6.712;2022-08-21T05:16:39;101477.31;;;13.24;51.43
60845;BME280;47984;51.250;6.712;2022-08-21T05:19:08;101476.47;;;13.23;51.31
60845;BME280;47984;51.250;6.712;2022-08-21T05:21:38;101477.31;;;13.24;51.27
60845;BME280;47984;51.250;6.712;2022-08-21T05:24:06;101485.94;;;13.26;51.41
60845;BME280;47984;51.250;6.712;2022-08-21T05:26:33;101485.09;;;13.25;51.29
60845;BME280;47984;51.250;6.712;2022-08-21T05:29:11;101479.03;;;13.25;51.62
60845;BME280;47984;51.250;6.712;2022-08-21T05:31:38;101490.31;;;13.25;51.38
60845;BME280;47984;51.250;6.712;2022-08-21T05:34:06;101489.38;;;13.28;51.84
60845;BME280;47984;51.250;6.712;2022-08-21T05:36:33;101500.66;;;13.30;51.67
60845;BME280;47984;51.250;6.712;2022-08-21T05:39:00;101494.53;;;13.31;51.55
60845;BME280;47984;51.250;6.712;2022-08-21T05:41:27;101490.22;;;13.30;51.31
60845;BME280;47984;51.250;6.712;2022-08-21T05:43:54;101495.28;;;13.34;51.30
60845;BME280;47984;51.250;6.712;2022-08-21T05:46:21;101478.75;;;13.34;51.56
60845;BME280;47984;51.250;6.712;2022-08-21T05:48:48;101485.69;;;13.35;51.50
60845;BME280;47984;51.250;6.712;2022-08-21T05:51:15;101489.13;;;13.37;51.45
60845;BME280;47984;51.250;6.712;2022-08-21T05:53:43;101484.81;;;13.36;51.41
60845;BME280;47984;51.250;6.712;2022-08-21T05:56:11;101492.56;;;13.39;51.60
60845;BME280;47984;51.250;6.712;2022-08-21T05:58:38;101488.97;;;13.42;51.67
60845;BME280;47984;51.250;6.712;2022-08-21T06:01:06;101483.72;;;13.43;51.56
60845;BME280;47984;51.250;6.712;2022-08-21T06:03:38;101489.75;;;13.45;51.46
60845;BME280;47984;51.250;6.712;2022-08-21T06:06:06;101489.69;;;13.47;51.59
60845;BME280;47984;51.250;6.712;2022-08-21T06:08:33;101484.44;;;13.48;51.41
60845;BME280;47984;51.250;6.712;2022-08-21T06:11:02;101489.56;;;13.51;51.50
60845;BME280;47984;51.250;6.712;2022-08-21T06:13:29;101479.13;;;13.51;51.64
60845;BME280;47984;51.250;6.712;2022-08-21T06:16:13;101488.56;;;13.55;51.51
60845;BME280;47984;51.250;6.712;2022-08-21T06:18:43;101487.63;;;13.58;51.44
60845;BME280;47984;51.250;6.712;2022-08-21T06:21:11;101484.94;;;13.61;51.71
60845;BME280;47984;51.250;6.712;2022-08-21T06:23:41;101492.69;;;13.64;51.67
60845;BME280;47984;51.250;6.712;2022-08-21T06:26:10;101497.00;;;13.67;51.29
60845;BME280;47984;51.250;6.712;2022-08-21T06:28:37;101496.81;;;13.71;51.61
60845;BME280;47984;51.250;6.712;2022-08-21T06:31:17;101498.44;;;13.75;51.75
60845;BME280;47984;51.250;6.712;2022-08-21T06:33:45;101492.25;;;13.78;51.66
60845;BME280;47984;51.250;6.712;2022-08-21T06:36:12;101491.31;;;13.80;51.78
60845;BME280;47984;51.250;6.712;2022-08-21T06:38:39;101492.03;;;13.86;51.43
60845;BME280;47984;51.250;6.712;2022-08-21T06:41:13;101495.34;;;13.91;51.74
60845;BME280;47984;51.250;6.712;2022-08-21T06:43:40;101493.47;;;13.94;51.40
60845;BME280;47984;51.250;6.712;2022-08-21T06:46:07;101497.66;;;14.00;51.50
60845;BME280;47984;51.250;6.712;2022-08-21T06:48:34;101494.09;;;14.02;51.68
60845;BME280;47984;51.250;6.712;2022-08-21T06:51:01;101495.59;;;14.10;51.30
60845;BME280;47984;51.250;6.712;2022-08-21T06:53:29;101492.00;;;14.14;51.37
60845;BME280;47984;51.250;6.712;2022-08-21T06:55:56;101484.84;;;14.19;51.21
60845;BME280;47984;51.250;6.712;2022-08-21T06:58:23;101487.34;;;14.23;51.49
60845;BME280;47984;51.250;6.712;2022-08-21T07:00:50;101498.44;;;14.30;51.54
60845;BME280;47984;51.250;6.712;2022-08-21T07:03:32;101496.44;;;14.38;51.14
60845;BME280;47984;51.250;6.712;2022-08-21T07:05:59;101489.25;;;14.43;51.61
60845;BME280;47984;51.250;6.712;2022-08-21T07:08:27;101486.44;;;14.49;51.69
60845;BME280;47984;51.250;6.712;2022-08-21T07:10:56;101490.63;;;14.57;51.29
60845;BME280;47984;51.250;6.712;2022-08-21T07:13:23;101477.31;;;14.63;51.19
60845;BME280;47984;51.250;6.712;2022-08-21T07:15:50;101479.75;;;14.67;51.37
60845;BME280;47984;51.250;6.712;2022-08-21T07:18:17;101478.63;;;14.75;51.41
60845;BME280;47984;51.250;6.712;2022-08-21T07:20:45;101483.59;;;14.82;51.04
60845;BME280;47984;51.250;6.712;2022-08-21T07:23:33;101473.75;;;14.89;51.32
60845;BME280;47984;51.250;6.712;2022-08-21T07:26:03;101490.00;;;14.99;51.38
60845;BME280;47984;51.250;6.712;2022-08-21T07:28:30;101484.59;;;15.03;50.98
60845;BME280;47984;51.250;6.712;2022-08-21T07:30:59;101484.31;;;15.11;50.96
60845;BME280;47984;51.250;6.712;2022-08-21T07:33:29;101487.63;;;15.16;51.04
60845;BME280;47984;51.250;6.712;2022-08-21T07:35:57;101478.63;;;15.23;51.01
60845;BME280;47984;51.250;6.712;2022-08-21T07:38:24;101484.53;;;15.28;51.03
60845;BME280;47984;51.250;6.712;2022-08-21T07:40:53;101479.06;;;15.34;50.82
60845;BME280;47984;51.250;6.712;2022-08-21T07:43:20;101478.81;;;15.42;50.95
60845;BME280;47984;51.250;6.712;2022-08-21T07:45:48;101490.63;;;15.52;51.22
60845;BME280;47984;51.250;6.712;2022-08-21T07:48:18;101486.06;;;15.57;51.94
60845;BME280;47984;51.250;6.712;2022-08-21T07:50:45;101485.00;;;15.63;51.16
60845;BME280;47984;51.250;6.712;2022-08-21T07:53:13;101485.56;;;15.71;51.05
60845;BME280;47984;51.250;6.712;2022-08-21T07:55:40;101476.66;;;15.75;51.13
60845;BME280;47984;51.250;6.712;2022-08-21T07:58:07;101477.19;;;15.83;50.89
60845;BME280;47984;51.250;6.712;2022-08-21T08:00:34;101469.94;;;15.90;51.08
60845;BME280;47984;51.250;6.712;2022-08-21T08:03:01;101473.94;;;15.99;51.02
60845;BME280;47984;51.250;6.712;2022-08-21T08:05:30;101461.38;;;16.07;50.87
60845;BME280;47984;51.250;6.712;2022-08-21T08:07:58;101458.50;;;16.13;51.24
60845;BME280;47984;51.250;6.712;2022-08-21T08:10:25;101464.38;;;16.20;51.03
60845;BME280;47984;51.250;6.712;2022-08-21T08:12:54;101459.78;;;16.25;50.90
60845;BME280;47984;51.250;6.712;2022-08-21T08:15:24;101455.00;;;16.35;50.68
60845;BME280;47984;51.250;6.712;2022-08-21T08:17:51;101454.75;;;16.41;50.67
60845;BME280;47984;51.250;6.712;2022-08-21T08:20:19;101452.84;;;16.44;50.95
60845;BME280;47984;51.250;6.712;2022-08-21T08:22:47;101449.94;;;16.50;51.02
60845;BME280;47984;51.250;6.712;2022-08-21T08:25:17;101446.22;;;16.56;50.84
60845;BME280;47984;51.250;6.712;2022-08-21T08:27:44;101455.47;;;16.65;51.13
60845;BME280;47984;51.250;6.712;2022-08-21T08:30:13;101458.56;;;16.73;50.69
60845;BME280;47984;51.250;6.712;2022-08-21T08:32:41;101460.88;;;16.81;50.82
60845;BME280;47984;51.250;6.712;2022-08-21T08:35:08;101463.25;;;16.87;50.25
60845;BME280;47984;51.250;6.712;2022-08-21T08:37:36;101460.47;;;16.90;50.34
60845;BME280;47984;51.250;6.712;2022-08-21T08:40:13;101460.16;;;16.97;50.56
60845;BME280;47984;51.250;6.712;2022-08-21T08:42:41;101451.22;;;17.01;50.21
60845;BME280;47984;51.250;6.712;2022-08-21T08:45:11;101455.13;;;17.12;50.61
60845;BME280;47984;51.250;6.712;2022-08-21T08:47:46;101450.44;;;17.18;50.52
60845;BME280;47984;51.250;6.712;2022-08-21T08:50:21;101448.47;;;17.23;50.37
60845;BME280;47984;51.250;6.712;2022-08-21T08:52:59;101445.47;;;17.31;50.54
60845;BME280;47984;51.250;6.712;2022-08-21T08:55:40;101450.38;;;17.39;49.79
60845;BME280;47984;51.250;6.712;2022-08-21T08:58:23;101451.00;;;17.44;50.59
60845;BME280;47984;51.250;6.712;2022-08-21T09:00:53;101447.16;;;17.51;49.99
60845;BME280;47984;51.250;6.712;2022-08-21T09:03:23;101442.63;;;17.55;49.98
60845;BME280;47984;51.250;6.712;2022-08-21T09:06:54;101439.59;;;17.62;50.68
60845;BME280;47984;51.250;6.712;2022-08-21T09:09:16;101441.94;;;17.68;50.10
60845;BME280;47984;51.250;6.712;2022-08-21T09:12:03;101446.16;;;17.73;50.61
60845;BME280;47984;51.250;6.712;2022-08-21T09:24:00;101425.91;;;17.92;50.05
60845;BME280;47984;51.250;6.712;2022-08-21T09:26:40;101429.09;;;17.99;49.66
60845;BME280;47984;51.250;6.712;2022-08-21T09:29:12;101424.53;;;18.02;49.74
60845;BME280;47984;51.250;6.712;2022-08-21T09:31:39;101426.94;;;18.07;49.59
60845;BME280;47984;51.250;6.712;2022-08-21T09:34:08;101423.22;;;18.11;49.58
60845;BME280;47984;51.250;6.712;2022-08-21T09:36:47;101423.91;;;18.14;49.71
60845;BME280;47984;51.250;6.712;2022-08-21T09:39:29;101429.72;;;18.21;50.22
60845;BME280;47984;51.250;6.712;2022-08-21T09:42:07;101429.34;;;18.29;49.48
60845;BME280;47984;51.250;6.712;2022-08-21T09:44:38;101430.81;;;18.34;49.88
60845;BME280;47984;51.250;6.712;2022-08-21T09:47:08;101423.44;;;18.41;49.56
60845;BME280;47984;51.250;6.712;2022-08-21T09:49:39;101417.88;;;18.47;49.28
60845;BME280;47984;51.250;6.712;2022-08-21T09:54:45;101413.31;;;18.51;49.55
60845;BME280;47984;51.250;6.712;2022-08-21T09:57:14;101413.00;;;18.57;49.36
60845;BME280;47984;51.250;6.712;2022-08-21T10:00:28;101419.78;;;18.61;49.24
60845;BME280;47984;51.250;6.712;2022-08-21T10:03:30;101415.81;;;18.70;49.32
60845;BME280;47984;51.250;6.712;2022-08-21T10:06:02;101407.75;;;18.73;49.66
60845;BME280;47984;51.250;6.712;2022-08-21T10:08:37;101404.09;;;18.75;48.99
60845;BME280;47984;51.250;6.712;2022-08-21T10:11:10;101403.84;;;18.80;49.88
60845;BME280;47984;51.250;6.712;2022-08-21T10:14:44;101412.25;;;18.87;48.95
60845;BME280;47984;51.250;6.712;2022-08-21T10:17:05;101399.81;;;18.90;49.19
60845;BME280;47984;51.250;6.712;2022-08-21T10:27:39;101393.34;;;19.12;49.17
60845;BME280;47984;51.250;6.712;2022-08-21T10:30:19;101391.31;;;19.17;49.43
60845;BME280;47984;51.250;6.712;2022-08-21T10:35:28;101382.75;;;19.29;49.15
60845;BME280;47984;51.250;6.712;2022-08-21T10:41:18;101390.97;;;19.39;48.45
60845;BME280;47984;51.250;6.712;2022-08-21T10:49:27;101379.72;;;19.51;48.81
60845;BME280;47984;51.250;6.712;2022-08-21T10:54:59;101377.41;;;19.61;48.23
60845;BME280;47984;51.250;6.712;2022-08-21T10:57:47;101373.69;;;19.65;48.38
60845;BME280;47984;51.250;6.712;2022-08-21T11:00:21;101375.09;;;19.70;48.28
60845;BME280;47984;51.250;6.712;2022-08-21T11:02:54;101381.78;;;19.76;49.03
60845;BME280;47984;51.250;6.712;2022-08-21T11:05:31;101387.00;;;19.77;48.69
60845;BME280;47984;51.250;6.712;2022-08-21T11:08:04;101382.13;;;19.86;48.76
60845;BME280;47984;51.250;6.712;2022-08-21T11:10:42;101377.44;;;19.91;47.97
60845;BME280;47984;51.250;6.712;2022-08-21T11:13:48;101375.28;;;19.97;48.82
60845;BME280;47984;51.250;6.712;2022-08-21T11:21:58;101372.88;;;20.09;48.13
60845;BME280;47984;51.250;6.712;2022-08-21T11:24:32;101376.09;;;20.14;48.25
60845;BME280;47984;51.250;6.712;2022-08-21T11:29:38;101367.41;;;20.26;48.20
60845;BME280;47984;51.250;6.712;2022-08-21T11:43:47;101370.53;;;20.47;47.50
60845;BME280;47984;51.250;6.712;2022-08-21T11:46:42;101366.81;;;20.51;47.97
60845;BME280;47984;51.250;6.712;2022-08-21T11:49:26;101361.44;;;20.53;48.31
60845;BME280;47984;51.250;6.712;2022-08-21T11:54:59;101368.91;;;20.60;47.66
60845;BME280;47984;51.250;6.712;2022-08-21T11:57:34;101363.41;;;20.63;47.75
60845;BME280;47984;51.250;6.712;2022-08-21T12:00:26;101368.41;;;20.68;47.98
60845;BME280;47984;51.250;6.712;2022-08-21T12:02:59;101354.22;;;20.69;48.11
60845;BME280;47984;51.250;6.712;2022-08-21T12:05:36;101355.84;;;20.72;47.75
60845;BME280;47984;51.250;6.712;2022-08-21T12:08:15;101355.84;;;20.72;47.74
60845;BME280;47984;51.250;6.712;2022-08-21T12:13:37;101349.53;;;20.74;47.05
60845;BME280;47984;51.250;6.712;2022-08-21T12:16:09;101346.69;;;20.77;47.93
60845;BME280;47984;51.250;6.712;2022-08-21T12:18:37;101355.47;;;20.78;47.62
60845;BME280;47984;51.250;6.712;2022-08-21T12:21:26;101350.09;;;20.79;47.40
60845;BME280;47984;51.250;6.712;2022-08-21T12:26:31;101347.25;;;20.82;47.38
60845;BME280;47984;51.250;6.712;2022-08-21T12:34:17;101343.47;;;20.86;47.75
60845;BME280;47984;51.250;6.712;2022-08-21T12:36:57;101343.34;;;20.88;47.45
60845;BME280;47984;51.250;6.712;2022-08-21T12:39:26;101349.50;;;20.88;46.64
60845;BME280;47984;51.250;6.712;2022-08-21T12:42:01;101353.84;;;20.89;47.04
60845;BME280;47984;51.250;6.712;2022-08-21T12:44:41;101348.44;;;20.91;47.32
60845;BME280;47984;51.250;6.712;2022-08-21T12:50:13;101348.34;;;20.93;46.84
60845;BME280;47984;51.250;6.712;2022-08-21T12:52:55;101347.50;;;20.92;46.74
60845;BME280;47984;51.250;6.712;2022-08-21T12:55:29;101347.41;;;20.94;47.30
60845;BME280;47984;51.250;6.712;2022-08-21T12:57:57;101348.34;;;20.93;46.77
60845;BME280;47984;51.250;6.712;2022-08-21T13:00:27;101345.72;;;20.93;46.96
60845;BME280;47984;51.250;6.712;2022-08-21T13:02:56;101343.84;;;20.95;47.02
60845;BME280;47984;51.250;6.712;2022-08-21T13:05:30;101338.44;;;20.96;46.53
60845;BME280;47984;51.250;6.712;2022-08-21T13:07:59;101349.13;;;20.95;47.35
60845;BME280;47984;51.250;6.712;2022-08-21T13:10:31;101354.22;;;20.98;47.23
60845;BME280;47984;51.250;6.712;2022-08-21T13:13:02;101343.63;;;20.98;46.36
60845;BME280;47984;51.250;6.712;2022-08-21T13:15:40;101350.50;;;21.00;46.87
60845;BME280;47984;51.250;6.712;2022-08-21T13:18:22;101340.88;;;20.99;46.33
60845;BME280;47984;51.250;6.712;2022-08-21T13:20:51;101336.63;;;20.97;46.57
60845;BME280;47984;51.250;6.712;2022-08-21T13:23:23;101335.78;;;20.96;46.67
60845;BME280;47984;51.250;6.712;2022-08-21T13:25:50;101346.28;;;20.98;46.17
60845;BME280;47984;51.250;6.712;2022-08-21T13:28:17;101338.34;;;20.98;46.27
60845;BME280;47984;51.250;6.712;2022-08-21T13:30:48;101342.03;;;20.95;46.65
60845;BME280;47984;51.250;6.712;2022-08-21T13:33:20;101331.47;;;20.95;46.73
60845;BME280;47984;51.250;6.712;2022-08-21T13:36:01;101341.19;;;20.95;46.15
60845;BME280;47984;51.250;6.712;2022-08-21T13:38:31;101332.38;;;20.94;46.76
60845;BME280;47984;51.250;6.712;2022-08-21T13:41:24;101333.06;;;20.98;46.51
60845;BME280;47984;51.250;6.712;2022-08-21T13:43:59;101320.88;;;20.95;46.42
60845;BME280;47984;51.250;6.712;2022-08-21T13:46:30;101318.25;;;20.95;46.57
60845;BME280;47984;51.250;6.712;2022-08-21T13:48:59;101337.47;;;20.97;46.06
60845;BME280;47984;51.250;6.712;2022-08-21T13:51:26;101321.53;;;20.99;46.29
60845;BME280;47984;51.250;6.712;2022-08-21T13:53:54;101324.81;;;21.02;46.02
60845;BME280;47984;51.250;6.712;2022-08-21T13:56:40;101320.28;;;21.04;46.32
60845;BME280;47984;51.250;6.712;2022-08-21T13:59:07;101327.91;;;21.09;45.90
60845;BME280;47984;51.250;6.712;2022-08-21T14:01:49;101319.06;;;21.10;45.97
60845;BME280;47984;51.250;6.712;2022-08-21T14:04:43;101319.06;;;21.10;46.42
60845;BME280;47984;51.250;6.712;2022-08-21T14:07:31;101317.06;;;21.13;45.46
60845;BME280;47984;51.250;6.712;2022-08-21T14:10:22;101322.19;;;21.17;45.48
60845;BME280;47984;51.250;6.712;2022-08-21T14:13:56;101321.84;;;21.21;45.50
60845;BME280;47984;51.250;6.712;2022-08-21T14:18:45;101306.75;;;21.23;45.85
60845;BME280;47984;51.250;6.712;2022-08-21T14:21:12;101317.00;;;21.28;45.37
60845;BME280;47984;51.250;6.712;2022-08-21T14:23:40;101308.78;;;21.32;45.57
60845;BME280;47984;51.250;6.712;2022-08-21T14:26:08;101319.16;;;21.35;45.95
60845;BME280;47984;51.250;6.712;2022-08-21T14:28:40;101316.41;;;21.37;45.54
60845;BME280;47984;51.250;6.712;2022-08-21T14:31:18;101305.53;;;21.42;46.04
60845;BME280;47984;51.250;6.712;2022-08-21T14:33:47;101301.28;;;21.39;45.04